Daishinmaru No.88 — JK5584 — position and weather

sailwx.info

Track history (hours):
 
Tides and Currents Weather Stations Pressure Air Temp Water Temp Dewpoint Dewpoint Depression Visibility Wind Speed Wind Dir Waves Ship Positions

Daishinmaru No.88

Last reported at 2018-Feb-22 22:29 UTC. Time now 2018-Feb-22 22:59 UTC.
Position N 33°53' E 130°48'.

Length 30 m.

Type: Towing. MMSI: 432474000.

Date/timePositionNaut miles runAvg speedWind from/ knotsBaromVisibWave heightAir tempDewpointWater temp
2018-Feb-22 22:29N 33°53' E 130°48'0 0.0
2018-Feb-22 21:59N 33°53' E 130°48'0 0.0
2018-Feb-22 21:29N 33°53' E 130°48'0 0.0
2018-Feb-22 20:59N 33°53' E 130°48'0 0.0
2018-Feb-22 20:29N 33°53' E 130°48'0 0.0
2018-Feb-22 19:59N 33°53' E 130°48'0 0.0
2018-Feb-22 19:29N 33°53' E 130°48'0 0.0
2018-Feb-22 18:59N 33°53' E 130°48'0 0.0
2018-Feb-22 18:29N 33°53' E 130°48'0 0.0
2018-Feb-22 17:59N 33°53' E 130°48'0 0.0
2018-Feb-22 17:29N 33°53' E 130°48'0 0.0
2018-Feb-22 16:59N 33°53' E 130°48'0 0.0
2018-Feb-22 16:29N 33°53' E 130°48'0 0.0
2018-Feb-22 15:59N 33°53' E 130°48'0 0.0
2018-Feb-22 15:29N 33°53' E 130°48'0 0.0
2018-Feb-22 14:59N 33°53' E 130°48'0 0.0
2018-Feb-22 14:29N 33°53' E 130°48'0 0.0
2018-Feb-22 13:59N 33°53' E 130°48'0 0.0
2018-Feb-22 13:26N 33°53' E 130°48'0 0.0
2018-Feb-22 12:59N 33°53' E 130°48'0 0.0
2018-Feb-22 12:29N 33°53' E 130°48'0 0.0
2018-Feb-22 11:59N 33°53' E 130°48'0 0.0
2018-Feb-22 11:26N 33°53' E 130°48'0 0.0
2018-Feb-22 10:59N 33°53' E 130°48'0 0.0
2018-Feb-22 10:29N 33°53' E 130°48'0 0.0
2018-Feb-22 09:59N 33°53' E 130°48'0 0.0
2018-Feb-22 09:29N 33°53' E 130°48'0 0.0
2018-Feb-22 08:59N 33°53' E 130°48'0 0.0
2018-Feb-22 08:29N 33°53' E 130°48'0 0.0
2018-Feb-22 07:59N 33°53' E 130°48'0 0.0
2018-Feb-22 07:29N 33°53' E 130°48'0 0.0
2018-Feb-22 06:59N 33°53' E 130°48'0 0.0
2018-Feb-22 06:29N 33°53' E 130°48'0 0.0
2018-Feb-22 05:59N 33°53' E 130°48'0 0.0
2018-Feb-22 05:29N 33°53' E 130°48'0 0.0
2018-Feb-22 04:59N 33°53' E 130°48'0 0.0
2018-Feb-22 04:29N 33°53' E 130°48'0 0.0
2018-Feb-22 03:59N 33°53' E 130°48'0 0.0
2018-Feb-22 03:26N 33°53' E 130°48'0 0.0
2018-Feb-22 02:59N 33°53' E 130°48'0 0.0
2018-Feb-22 02:29N 33°53' E 130°48'2 4.4
2018-Feb-22 02:00N 33°55' E 130°49'4 8.1
2018-Feb-22 01:30N 33°55' E 130°54'4 8.9
2018-Feb-22 01:00N 33°58' E 130°58'4 7.9
2018-Feb-22 00:29N 33°57' E 131°03'4 8.4
2018-Feb-22 00:00N 33°55' E 131°07'4 8.6
2018-Feb-21 23:30N 33°53' E 131°11'4 8.5
2018-Feb-21 23:00N 33°51' E 131°16'4 8.6
2018-Feb-21 22:30N 33°50' E 131°21'4 8.4
2018-Feb-21 21:59N 33°50' E 131°26'4 8.3
2018-Feb-21 21:30N 33°49' E 131°31'4 8.3
2018-Feb-21 21:00N 33°48' E 131°36'4 8.4
2018-Feb-21 20:30N 33°47' E 131°41'4 8.2
2018-Feb-21 20:00N 33°47' E 131°45'14 8.2
2018-Feb-21 18:19N 33°46' E 132°02'4 9.1
2018-Feb-21 17:55N 33°47' E 132°06'4 9.6
2018-Feb-21 17:30N 33°49' E 132°10'15 9.1
2018-Feb-21 15:54N 33°53' E 132°27'11 8.0
2018-Feb-21 14:32N 34°01' E 132°36'0 7.7
2018-Feb-21 14:28N 34°01' E 132°37'97 8.2
2018-Feb-21 02:37N 34°19' E 134°32'10 2.9
2018-Feb-20 23:18N 34°15' E 134°43'6 3.5
2018-Feb-20 21:35N 34°09' E 134°44'1 8.5
2018-Feb-20 21:25N 34°08' E 134°45'4 8.6
2018-Feb-20 20:59N 34°05' E 134°48'5 8.3
2018-Feb-20 20:23N 34°01' E 134°52'4 6.2
2018-Feb-20 19:45N 33°58' E 134°55'2 6.6
2018-Feb-20 19:30N 33°57' E 134°56'5 7.3
2018-Feb-20 18:52N 33°53' E 134°60'244 7.5
2018-Feb-19 10:08N 35°06' E 139°43'2 9.1
2018-Feb-19 09:55N 35°08' E 139°44'7 7.7
2018-Feb-19 09:02N 35°15' E 139°46'0 8.4
2018-Feb-19 09:01N 35°15' E 139°46'5 7.7
2018-Feb-19 08:25N 35°19' E 139°43'3 7.8
2018-Feb-19 07:59N 35°22' E 139°42'3 7.2
2018-Feb-19 07:30N 35°25' E 139°44'3 6.6
2018-Feb-19 07:01N 35°24' E 139°48'4 8.1
2018-Feb-19 06:29N 35°20' E 139°50'0 0.0
2018-Feb-19 05:53N 35°20' E 139°50'0 0.0
2018-Feb-19 05:29N 35°20' E 139°50'0 0.0
2018-Feb-19 04:59N 35°20' E 139°50'0 0.1
2018-Feb-19 04:29N 35°20' E 139°50'0 0.5
2018-Feb-19 03:56N 35°20' E 139°49'0 0.0
2018-Feb-19 03:29N 35°20' E 139°49'2 3.0
2018-Feb-19 02:59N 35°21' E 139°49'4 8.7
2018-Feb-19 02:30N 35°25' E 139°51'1310.9
2018-Feb-19 01:18N 35°36' E 139°58'4 0.5
2018-Feb-18 16:24N 35°40' E 139°60'  
Track history (hours):
 
Tides and Currents Weather Stations Pressure Air Temp Water Temp Dewpoint Dewpoint Depression Visibility Wind Speed Wind Dir Waves Ship Positions

Daishinmaru No.88

Last reported at 2018-Feb-22 22:29 UTC. Time now 2018-Feb-22 22:59 UTC.
Position N 33°53' E 130°48'.

Length 30 m.

Type: Towing. MMSI: 432474000.

Date/timePositionNaut miles runAvg speedWind from/ knotsBaromVisibWave heightAir tempDewpointWater temp
2018-Feb-22 22:29N 33°53' E 130°48'0 0.0
2018-Feb-22 21:59N 33°53' E 130°48'0 0.0
2018-Feb-22 21:29N 33°53' E 130°48'0 0.0
2018-Feb-22 20:59N 33°53' E 130°48'0 0.0
2018-Feb-22 20:29N 33°53' E 130°48'0 0.0
2018-Feb-22 19:59N 33°53' E 130°48'0 0.0
2018-Feb-22 19:29N 33°53' E 130°48'0 0.0
2018-Feb-22 18:59N 33°53' E 130°48'0 0.0
2018-Feb-22 18:29N 33°53' E 130°48'0 0.0
2018-Feb-22 17:59N 33°53' E 130°48'0 0.0
2018-Feb-22 17:29N 33°53' E 130°48'0 0.0
2018-Feb-22 16:59N 33°53' E 130°48'0 0.0
2018-Feb-22 16:29N 33°53' E 130°48'0 0.0
2018-Feb-22 15:59N 33°53' E 130°48'0 0.0
2018-Feb-22 15:29N 33°53' E 130°48'0 0.0
2018-Feb-22 14:59N 33°53' E 130°48'0 0.0
2018-Feb-22 14:29N 33°53' E 130°48'0 0.0
2018-Feb-22 13:59N 33°53' E 130°48'0 0.0
2018-Feb-22 13:26N 33°53' E 130°48'0 0.0
2018-Feb-22 12:59N 33°53' E 130°48'0 0.0
2018-Feb-22 12:29N 33°53' E 130°48'0 0.0
2018-Feb-22 11:59N 33°53' E 130°48'0 0.0
2018-Feb-22 11:26N 33°53' E 130°48'0 0.0
2018-Feb-22 10:59N 33°53' E 130°48'0 0.0
2018-Feb-22 10:29N 33°53' E 130°48'0 0.0
2018-Feb-22 09:59N 33°53' E 130°48'0 0.0
2018-Feb-22 09:29N 33°53' E 130°48'0 0.0
2018-Feb-22 08:59N 33°53' E 130°48'0 0.0
2018-Feb-22 08:29N 33°53' E 130°48'0 0.0
2018-Feb-22 07:59N 33°53' E 130°48'0 0.0
2018-Feb-22 07:29N 33°53' E 130°48'0 0.0
2018-Feb-22 06:59N 33°53' E 130°48'0 0.0
2018-Feb-22 06:29N 33°53' E 130°48'0 0.0
2018-Feb-22 05:59N 33°53' E 130°48'0 0.0
2018-Feb-22 05:29N 33°53' E 130°48'0 0.0
2018-Feb-22 04:59N 33°53' E 130°48'0 0.0
2018-Feb-22 04:29N 33°53' E 130°48'0 0.0
2018-Feb-22 03:59N 33°53' E 130°48'0 0.0
2018-Feb-22 03:26N 33°53' E 130°48'0 0.0
2018-Feb-22 02:59N 33°53' E 130°48'0 0.0
2018-Feb-22 02:29N 33°53' E 130°48'2 4.4
2018-Feb-22 02:00N 33°55' E 130°49'4 8.1
2018-Feb-22 01:30N 33°55' E 130°54'4 8.9
2018-Feb-22 01:00N 33°58' E 130°58'4 7.9
2018-Feb-22 00:29N 33°57' E 131°03'4 8.4
2018-Feb-22 00:00N 33°55' E 131°07'4 8.6
2018-Feb-21 23:30N 33°53' E 131°11'4 8.5
2018-Feb-21 23:00N 33°51' E 131°16'4 8.6
2018-Feb-21 22:30N 33°50' E 131°21'4 8.4
2018-Feb-21 21:59N 33°50' E 131°26'4 8.3
2018-Feb-21 21:30N 33°49' E 131°31'4 8.3
2018-Feb-21 21:00N 33°48' E 131°36'4 8.4
2018-Feb-21 20:30N 33°47' E 131°41'4 8.2
2018-Feb-21 20:00N 33°47' E 131°45'14 8.2
2018-Feb-21 18:19N 33°46' E 132°02'4 9.1
2018-Feb-21 17:55N 33°47' E 132°06'4 9.6
2018-Feb-21 17:30N 33°49' E 132°10'15 9.1
2018-Feb-21 15:54N 33°53' E 132°27'11 8.0
2018-Feb-21 14:32N 34°01' E 132°36'0 7.7
2018-Feb-21 14:28N 34°01' E 132°37'97 8.2
2018-Feb-21 02:37N 34°19' E 134°32'10 2.9
2018-Feb-20 23:18N 34°15' E 134°43'6 3.5
2018-Feb-20 21:35N 34°09' E 134°44'1 8.5
2018-Feb-20 21:25N 34°08' E 134°45'4 8.6
2018-Feb-20 20:59N 34°05' E 134°48'5 8.3
2018-Feb-20 20:23N 34°01' E 134°52'4 6.2
2018-Feb-20 19:45N 33°58' E 134°55'2 6.6
2018-Feb-20 19:30N 33°57' E 134°56'5 7.3
2018-Feb-20 18:52N 33°53' E 134°60'244 7.5
2018-Feb-19 10:08N 35°06' E 139°43'2 9.1
2018-Feb-19 09:55N 35°08' E 139°44'7 7.7
2018-Feb-19 09:02N 35°15' E 139°46'0 8.4
2018-Feb-19 09:01N 35°15' E 139°46'5 7.7
2018-Feb-19 08:25N 35°19' E 139°43'3 7.8
2018-Feb-19 07:59N 35°22' E 139°42'3 7.2
2018-Feb-19 07:30N 35°25' E 139°44'3 6.6
2018-Feb-19 07:01N 35°24' E 139°48'4 8.1
2018-Feb-19 06:29N 35°20' E 139°50'0 0.0
2018-Feb-19 05:53N 35°20' E 139°50'0 0.0
2018-Feb-19 05:29N 35°20' E 139°50'0 0.0
2018-Feb-19 04:59N 35°20' E 139°50'0 0.1
2018-Feb-19 04:29N 35°20' E 139°50'0 0.5
2018-Feb-19 03:56N 35°20' E 139°49'0 0.0
2018-Feb-19 03:29N 35°20' E 139°49'2 3.0
2018-Feb-19 02:59N 35°21' E 139°49'4 8.7
2018-Feb-19 02:30N 35°25' E 139°51'1310.9
2018-Feb-19 01:18N 35°36' E 139°58'4 0.5
2018-Feb-18 16:24N 35°40' E 139°60'  

Dump ship's entire track history